Time;durP1;ratioP1;P1;durP2;ratioP2;P2;SDS_P1;SDS_P2;PMS_P1;PMS_P2;Temp;Humidity;BMP_temperature;BMP_pressure;BME280_temperature;BME280_humidity;BME280_pressure;Samples;Min_cycle;Max_cycle;Signal;HPM_P1;HPM_P2
2022/04/27 00:00:28;;;;;;;7.47;2.20;;;10.10;99.90;;;;;;5135175;27;20291;-71
2022/04/27 00:02:56;;;;;;;8.57;2.97;;;10.00;99.90;;;;;;5135218;27;20728;-73
2022/04/27 00:05:22;;;;;;;8.77;2.57;;;10.00;99.90;;;;;;5135029;27;20293;-72
2022/04/27 00:07:48;;;;;;;7.37;2.83;;;10.00;99.90;;;;;;5135047;27;20286;-71
2022/04/27 00:10:14;;;;;;;6.60;2.17;;;10.00;99.90;;;;;;5134680;27;20760;-72
2022/04/27 00:12:40;;;;;;;9.90;2.37;;;10.00;99.90;;;;;;5133716;27;20047;-72
2022/04/27 00:15:07;;;;;;;6.30;2.73;;;9.90;99.90;;;;;;5134571;27;20276;-71
2022/04/27 00:17:34;;;;;;;5.90;2.30;;;9.90;99.90;;;;;;5133984;27;20296;-72
2022/04/27 00:20:00;;;;;;;8.03;2.00;;;9.90;99.90;;;;;;5134525;27;20430;-72
2022/04/27 00:22:26;;;;;;;7.43;2.23;;;9.90;99.90;;;;;;5134667;27;20308;-72
2022/04/27 00:24:51;;;;;;;8.33;2.13;;;9.90;99.90;;;;;;5133476;27;20091;-72
2022/04/27 00:27:17;;;;;;;5.77;1.63;;;9.90;99.90;;;;;;5134368;27;20864;-72
2022/04/27 00:29:43;;;;;;;3.57;1.47;;;9.90;99.90;;;;;;5133462;27;20049;-72
2022/04/27 00:32:09;;;;;;;5.80;1.70;;;9.90;99.90;;;;;;5133348;27;20050;-72
2022/04/27 00:34:35;;;;;;;6.70;1.57;;;9.90;99.90;;;;;;5134580;27;20273;-72
2022/04/27 00:37:01;;;;;;;4.47;1.60;;;9.90;99.90;;;;;;5134483;27;20379;-72
2022/04/27 00:39:27;;;;;;;5.57;1.80;;;9.80;99.90;;;;;;5134484;27;20273;-72
2022/04/27 00:42:02;;;;;;;6.70;1.87;;;9.90;99.90;;;;;;5134653;27;20134;-72
2022/04/27 00:44:32;;;;;;;6.18;1.50;;;9.90;99.70;;;;;;5133631;27;20051;-72
2022/04/27 00:47:00;;;;;;;4.00;1.67;;;9.90;99.50;;;;;;5134561;27;20059;-72
2022/04/27 00:49:27;;;;;;;6.87;1.90;;;9.90;99.80;;;;;;5133978;27;20654;-72
2022/04/27 00:51:54;;;;;;;7.07;1.97;;;9.90;99.80;;;;;;5134392;27;20285;-72
2022/04/27 00:54:22;;;;;;;5.17;1.70;;;9.90;99.90;;;;;;5133887;27;20751;-72
2022/04/27 00:56:51;;;;;;;7.07;2.20;;;9.90;99.90;;;;;;5134155;27;20273;-72
2022/04/27 00:59:18;;;;;;;6.23;1.97;;;9.90;99.90;;;;;;5133831;27;20276;-71
2022/04/27 01:01:44;;;;;;;6.40;1.83;;;9.90;99.90;;;;;;5134050;27;20393;-72
2022/04/27 01:04:10;;;;;;;4.87;1.97;;;9.80;99.90;;;;;;5133631;27;20316;-72
2022/04/27 01:06:40;;;;;;;5.70;1.73;;;9.80;99.90;;;;;;5133114;27;20280;-72
2022/04/27 01:09:06;;;;;;;4.53;1.50;;;9.80;99.90;;;;;;5133788;27;20277;-72
2022/04/27 01:11:32;;;;;;;6.43;1.57;;;9.80;99.90;;;;;;5132854;27;20269;-72
2022/04/27 01:13:58;;;;;;;5.50;2.00;;;9.80;99.70;;;;;;5134039;27;20280;-72
2022/04/27 01:16:25;;;;;;;4.97;1.60;;;9.80;98.90;;;;;;5132406;27;20285;-72
2022/04/27 01:18:51;;;;;;;6.43;1.93;;;9.80;99.10;;;;;;5133860;27;20090;-72
2022/04/27 01:21:17;;;;;;;4.87;2.00;;;9.80;99.10;;;;;;5132559;28;20329;-72
2022/04/27 01:23:44;;;;;;;7.70;2.43;;;;;;;;;;5132926;28;20063;-72
2022/04/27 01:26:09;;;;;;;6.67;2.17;;;9.70;99.90;;;;;;5133548;28;20307;-72
2022/04/27 01:28:37;;;;;;;8.50;2.10;;;9.60;99.90;;;;;;5133926;28;20347;-71
2022/04/27 01:31:10;;;;;;;5.63;2.30;;;9.60;99.90;;;;;;5133816;28;20059;-72
2022/04/27 01:33:36;;;;;;;6.47;2.10;;;9.60;99.90;;;;;;5134066;28;20360;-72
2022/04/27 01:36:07;;;;;;;6.67;1.63;;;9.60;99.90;;;;;;5133775;28;20601;-71
2022/04/27 01:38:33;;;;;;;9.23;2.53;;;9.70;99.90;;;;;;5134053;28;20277;-72
2022/04/27 01:40:59;;;;;;;10.53;2.97;;;9.70;99.90;;;;;;5133773;28;20659;-72
2022/04/27 01:43:25;;;;;;;5.23;1.63;;;9.70;99.90;;;;;;5133340;28;20283;-72
2022/04/27 01:45:51;;;;;;;7.97;2.20;;;9.70;99.90;;;;;;5133701;28;20450;-72
2022/04/27 01:48:17;;;;;;;5.97;1.83;;;9.70;99.90;;;;;;5133332;28;20055;-72
2022/04/27 01:50:43;;;;;;;6.93;1.83;;;9.70;99.90;;;;;;5133262;27;20299;-72
2022/04/27 01:55:53;;;;;;;8.07;2.20;;;9.80;99.90;;;;;;5133731;28;20494;-71
2022/04/27 01:58:19;;;;;;;8.80;2.43;;;9.80;99.90;;;;;;5133254;28;20316;-72
2022/04/27 02:00:46;;;;;;;7.17;1.83;;;9.80;99.90;;;;;;5133608;28;20372;-71
2022/04/27 02:03:15;;;;;;;5.90;2.00;;;9.80;99.90;;;;;;5133203;28;20269;-72
2022/04/27 02:05:48;;;;;;;8.80;2.30;;;9.80;99.90;;;;;;5132185;28;20312;-71
2022/04/27 02:08:15;;;;;;;8.90;2.27;;;9.80;99.90;;;;;;5132111;28;20296;-72
2022/04/27 02:10:40;;;;;;;8.30;2.63;;;9.80;99.90;;;;;;5133716;28;20272;-72
2022/04/27 02:13:08;;;;;;;14.93;2.93;;;9.80;99.90;;;;;;5135503;27;20720;-72
2022/04/27 02:15:34;;;;;;;8.97;2.63;;;9.80;99.90;;;;;;5135706;27;20076;-72
2022/04/27 02:18:01;;;;;;;6.60;2.50;;;9.80;99.90;;;;;;5137225;27;20642;-72
2022/04/27 02:20:27;;;;;;;7.37;2.53;;;9.80;99.90;;;;;;5136864;27;20281;-71
2022/04/27 02:22:53;;;;;;;8.80;2.27;;;9.80;99.90;;;;;;5137067;27;20284;-72
2022/04/27 02:25:20;;;;;;;6.27;2.07;;;9.80;99.90;;;;;;5136769;27;20099;-72
2022/04/27 02:27:46;;;;;;;5.13;2.03;;;9.80;99.90;;;;;;5135793;27;20363;-71
2022/04/27 02:30:13;;;;;;;6.17;2.13;;;9.80;99.90;;;;;;5136676;27;20281;-72
2022/04/27 02:32:39;;;;;;;7.47;2.23;;;9.80;99.90;;;;;;5137124;27;20345;-72
2022/04/27 02:35:06;;;;;;;7.27;2.70;;;9.80;99.90;;;;;;5136884;27;20273;-72
2022/04/27 02:37:33;;;;;;;8.00;2.00;;;9.70;99.90;;;;;;5136437;27;20352;-72
2022/04/27 02:39:59;;;;;;;7.17;2.17;;;9.80;99.90;;;;;;5136728;27;20277;-72
2022/04/27 02:42:25;;;;;;;7.87;2.20;;;9.70;99.90;;;;;;5136440;27;20680;-72
2022/04/27 02:44:51;;;;;;;8.37;2.40;;;9.70;99.90;;;;;;5136581;27;20301;-72
2022/04/27 02:47:18;;;;;;;15.77;3.10;;;9.80;99.90;;;;;;5135946;27;20309;-72
2022/04/27 02:52:29;;;;;;;6.93;2.10;;;9.80;99.90;;;;;;5136305;27;20284;-72
2022/04/27 02:54:55;;;;;;;9.37;2.47;;;9.80;99.90;;;;;;5136500;27;20035;-72
2022/04/27 02:57:21;;;;;;;5.80;2.00;;;9.70;99.90;;;;;;5136117;27;20047;-72
2022/04/27 02:59:47;;;;;;;6.30;1.83;;;9.70;99.90;;;;;;5135182;27;20281;-72
2022/04/27 03:02:13;;;;;;;6.47;2.00;;;9.70;99.90;;;;;;5136325;27;20281;-72
2022/04/27 03:04:39;;;;;;;6.30;1.90;;;9.70;99.90;;;;;;5135964;27;20039;-72
2022/04/27 03:07:05;;;;;;;4.67;1.87;;;9.70;99.90;;;;;;5136252;27;20062;-72
2022/04/27 03:09:30;;;;;;;5.10;2.03;;;9.70;99.90;;;;;;5135953;27;20043;-72
2022/04/27 03:11:56;;;;;;;3.70;1.60;;;9.70;99.90;;;;;;5136215;27;20342;-72
2022/04/27 03:14:22;;;;;;;4.87;1.80;;;9.70;99.90;;;;;;5135837;27;20050;-73
2022/04/27 03:16:49;;;;;;;4.27;1.57;;;9.70;99.90;;;;;;5135775;27;20084;-72
2022/04/27 03:19:15;;;;;;;3.33;1.40;;;9.70;99.90;;;;;;5136020;27;20076;-72
2022/04/27 03:21:41;;;;;;;4.63;1.40;;;9.70;99.90;;;;;;5134456;27;20316;-72
2022/04/27 03:24:07;;;;;;;5.53;1.90;;;9.70;99.60;;;;;;5134910;27;20312;-72
2022/04/27 03:26:33;;;;;;;4.43;1.50;;;9.60;99.80;;;;;;5135440;27;20284;-72
2022/04/27 03:28:59;;;;;;;8.17;1.90;;;9.60;98.50;;;;;;5136006;27;20295;-72
2022/04/27 03:31:25;;;;;;;5.00;1.70;;;9.60;97.40;;;;;;5135536;27;20062;-72
2022/04/27 03:33:51;;;;;;;3.43;1.50;;;9.60;96.90;;;;;;5117806;27;20333;-72
2022/04/27 03:36:17;;;;;;;6.43;1.50;;;9.60;97.80;;;;;;5135571;27;20807;-72
2022/04/27 03:38:43;;;;;;;5.53;1.60;;;9.60;98.00;;;;;;5134339;27;20042;-72
2022/04/27 03:41:09;;;;;;;4.53;1.30;;;9.50;97.10;;;;;;5136111;27;20291;-72
2022/04/27 03:43:36;;;;;;;6.50;2.23;;;9.60;95.40;;;;;;5135314;27;20053;-72
2022/04/27 03:46:02;;;;;;;4.73;1.40;;;9.50;94.50;;;;;;5134072;27;20335;-71
2022/04/27 03:48:28;;;;;;;6.87;1.57;;;9.60;94.60;;;;;;5135169;27;20277;-72
2022/04/27 03:50:54;;;;;;;5.00;1.47;;;9.60;94.60;;;;;;5135512;27;20269;-71
2022/04/27 03:53:19;;;;;;;6.43;1.60;;;9.60;94.10;;;;;;5135534;27;20043;-71
2022/04/27 03:55:45;;;;;;;6.63;1.50;;;9.60;93.60;;;;;;5135042;27;20083;-71
2022/04/27 03:58:11;;;;;;;5.47;1.50;;;9.60;93.40;;;;;;5135366;27;20042;-71
2022/04/27 04:00:36;;;;;;;5.47;1.80;;;9.60;94.00;;;;;;5134931;27;20137;-71
2022/04/27 04:03:03;;;;;;;7.00;1.60;;;9.60;94.00;;;;;;5135210;27;20081;-71
2022/04/27 04:05:29;;;;;;;6.00;1.60;;;9.60;93.90;;;;;;5134833;27;20432;-71
2022/04/27 04:07:55;;;;;;;5.73;1.93;;;9.60;94.20;;;;;;5134090;27;20284;-71
2022/04/27 04:10:21;;;;;;;6.63;1.70;;;9.60;93.70;;;;;;5133802;27;20479;-71
2022/04/27 04:12:47;;;;;;;4.50;1.90;;;9.60;94.50;;;;;;5133441;27;20269;-71
2022/04/27 04:15:13;;;;;;;6.83;1.80;;;9.60;95.20;;;;;;5135090;27;20096;-71
2022/04/27 04:17:48;;;;;;;4.43;1.80;;;9.60;95.90;;;;;;5116550;27;20051;-71
2022/04/27 04:20:17;;;;;;;6.63;2.22;;;9.60;96.00;;;;;;5135006;27;20273;-71
2022/04/27 04:22:43;;;;;;;6.07;2.27;;;9.60;96.40;;;;;;5134485;27;20043;-72
2022/04/27 04:30:38;;;;;;;7.97;2.27;;;9.60;97.40;;;;;;5134412;27;20261;-71
2022/04/27 04:33:04;;;;;;;5.00;1.80;;;9.50;97.60;;;;;;5133873;27;20285;-71
2022/04/27 04:35:29;;;;;;;3.87;1.80;;;9.60;97.90;;;;;;5134087;27;20470;-71
2022/04/27 04:37:55;;;;;;;4.50;1.80;;;9.60;97.90;;;;;;5134524;27;20121;-71
2022/04/27 04:40:21;;;;;;;6.23;2.00;;;9.60;98.40;;;;;;5134543;27;20039;-71
2022/04/27 04:42:47;;;;;;;7.00;2.37;;;9.60;98.50;;;;;;5134159;27;20047;-72
2022/04/27 04:45:13;;;;;;;4.73;1.80;;;9.60;98.60;;;;;;5134413;27;20319;-71
2022/04/27 04:47:42;;;;;;;5.53;2.00;;;9.60;98.40;;;;;;5133933;27;20074;-72
2022/04/27 04:50:11;;;;;;;5.10;1.73;;;9.50;98.50;;;;;;5134303;27;20350;-71
2022/04/27 04:52:37;;;;;;;3.70;1.63;;;9.60;98.10;;;;;;5133985;27;20316;-72
2022/04/27 04:55:03;;;;;;;6.13;2.03;;;9.60;98.50;;;;;;5133016;27;20281;-72
2022/04/27 04:57:29;;;;;;;4.90;1.80;;;9.60;98.60;;;;;;5133896;27;20276;-73
2022/04/27 04:59:55;;;;;;;6.87;1.70;;;9.60;98.20;;;;;;5134146;27;20320;-72
2022/04/27 05:02:21;;;;;;;5.80;2.03;;;9.60;97.70;;;;;;5134313;27;20312;-72
2022/04/27 05:04:46;;;;;;;5.07;1.80;;;9.60;97.80;;;;;;5133725;27;20035;-72
2022/04/27 05:07:12;;;;;;;4.03;1.77;;;9.60;98.40;;;;;;5133007;27;20104;-72
2022/04/27 05:09:38;;;;;;;5.83;2.13;;;9.60;98.70;;;;;;5133757;27;20491;-72
2022/04/27 05:12:04;;;;;;;4.53;2.00;;;9.60;98.60;;;;;;5134073;27;20476;-72
2022/04/27 05:14:30;;;;;;;5.10;1.90;;;9.60;98.90;;;;;;5133812;27;20074;-73
2022/04/27 05:16:56;;;;;;;5.20;2.20;;;9.60;99.30;;;;;;5133948;27;20703;-72
2022/04/27 05:19:22;;;;;;;7.00;2.10;;;9.70;99.20;;;;;;5133999;27;20049;-72
2022/04/27 05:21:51;;;;;;;6.47;2.77;;;9.70;99.50;;;;;;5133661;27;20087;-72
2022/04/27 05:24:17;;;;;;;6.17;2.43;;;9.70;99.40;;;;;;5133917;28;20301;-72
2022/04/27 05:26:43;;;;;;;7.77;3.03;;;9.70;99.70;;;;;;5133505;28;20340;-72
2022/04/27 05:31:57;;;;;;;5.20;2.63;;;9.60;99.90;;;;;;5133657;28;20343;-72
2022/04/27 05:34:24;;;;;;;8.03;2.37;;;9.70;99.90;;;;;;5134091;28;20277;-72
2022/04/27 05:36:50;;;;;;;6.37;2.73;;;9.70;99.90;;;;;;5132527;28;20288;-72
2022/04/27 05:39:18;;;;;;;6.23;2.43;;;9.70;99.80;;;;;;5133421;28;20787;-72
2022/04/27 05:41:44;;;;;;;6.77;2.80;;;9.70;99.50;;;;;;5133529;28;20273;-72
2022/04/27 05:44:12;;;;;;;6.27;2.63;;;9.80;99.40;;;;;;5133682;28;20394;-72
2022/04/27 05:46:41;;;;;;;5.40;2.53;;;9.80;99.60;;;;;;5131515;27;20364;-72
2022/04/27 05:49:07;;;;;;;6.17;2.20;;;9.80;99.50;;;;;;5137569;27;20285;-72
2022/04/27 05:51:33;;;;;;;8.17;2.50;;;9.90;99.50;;;;;;5137804;27;20273;-72
2022/04/27 05:53:58;;;;;;;6.60;2.90;;;9.80;99.20;;;;;;5136472;27;20281;-72
2022/04/27 05:56:24;;;;;;;5.50;2.37;;;9.90;98.90;;;;;;5138075;27;20053;-72
2022/04/27 05:58:51;;;;;;;6.27;2.57;;;9.90;98.60;;;;;;5137325;27;20051;-72
2022/04/27 06:01:18;;;;;;;6.60;2.63;;;9.90;98.50;;;;;;5136587;27;20292;-72
2022/04/27 06:03:44;;;;;;;7.80;3.00;;;10.00;98.40;;;;;;5135949;27;20289;-72
2022/04/27 06:06:10;;;;;;;6.83;2.60;;;10.00;98.30;;;;;;5137393;27;20299;-72
2022/04/27 06:08:35;;;;;;;6.70;2.80;;;10.00;97.70;;;;;;5137430;27;20051;-72
2022/04/27 06:11:01;;;;;;;7.27;3.10;;;10.00;97.90;;;;;;5137237;27;20051;-72
2022/04/27 06:13:27;;;;;;;7.10;2.93;;;10.00;97.90;;;;;;5137340;27;20047;-72
2022/04/27 06:15:52;;;;;;;6.23;3.20;;;10.10;97.80;;;;;;5137001;27;20483;-71
2022/04/27 06:18:18;;;;;;;9.60;2.63;;;10.00;98.00;;;;;;5137258;27;20039;-72
2022/04/27 06:20:44;;;;;;;7.03;2.93;;;10.10;97.80;;;;;;5136908;27;20047;-72
2022/04/27 06:23:09;;;;;;;7.73;3.10;;;10.10;97.50;;;;;;5137142;27;20513;-72
2022/04/27 06:25:39;;;;;;;7.23;2.70;;;10.10;97.50;;;;;;5137108;27;20096;-72
2022/04/27 06:28:05;;;;;;;9.17;2.80;;;10.20;97.60;;;;;;5136038;27;20043;-72
2022/04/27 06:30:32;;;;;;;6.13;2.53;;;10.20;97.50;;;;;;5136969;27;20283;-72
2022/04/27 06:32:58;;;;;;;7.23;2.37;;;10.20;97.30;;;;;;5136653;27;20047;-72
2022/04/27 06:35:24;;;;;;;6.73;2.50;;;10.30;97.70;;;;;;5135945;27;20308;-72
2022/04/27 06:37:49;;;;;;;6.37;2.93;;;10.30;97.60;;;;;;5136593;27;20117;-72
2022/04/27 06:40:15;;;;;;;6.33;2.60;;;10.30;97.90;;;;;;5136891;27;20057;-72
2022/04/27 06:42:44;;;;;;;10.10;3.27;;;10.20;98.10;;;;;;5136511;27;20498;-73
2022/04/27 06:45:10;;;;;;;7.07;2.47;;;10.40;99.90;;;;;;5136650;27;20500;-72
2022/04/27 06:47:36;;;;;;;8.83;2.30;;;10.40;99.90;;;;;;5136467;27;20307;-72
2022/04/27 06:50:02;;;;;;;4.53;2.43;;;10.30;98.50;;;;;;5135315;27;20764;-73
2022/04/27 06:52:28;;;;;;;7.50;3.17;;;10.30;98.50;;;;;;5136676;27;20043;-72
2022/04/27 06:54:53;;;;;;;7.07;3.00;;;10.40;98.60;;;;;;5136274;27;20042;-72
2022/04/27 06:57:19;;;;;;;8.93;2.70;;;10.40;98.50;;;;;;5136503;27;20137;-72
2022/04/27 06:59:45;;;;;;;6.77;2.60;;;10.40;98.40;;;;;;5134829;27;20096;-72
2022/04/27 07:02:13;;;;;;;8.00;2.80;;;10.40;97.80;;;;;;5136597;27;20047;-72
2022/04/27 07:04:41;;;;;;;6.90;2.97;;;10.40;97.80;;;;;;5136309;27;20054;-72
2022/04/27 07:07:07;;;;;;;7.23;3.30;;;10.50;97.90;;;;;;5135955;27;20272;-72
2022/04/27 07:09:33;;;;;;;7.70;3.47;;;10.50;97.90;;;;;;5136306;27;20625;-72
2022/04/27 07:11:59;;;;;;;9.67;3.37;;;10.50;98.40;;;;;;5135589;27;20287;-72
2022/04/27 07:14:25;;;;;;;9.27;3.90;;;10.60;98.80;;;;;;5136165;27;20070;-72
2022/04/27 07:16:51;;;;;;;6.40;3.03;;;10.60;99.10;;;;;;5134985;27;20420;-72
2022/04/27 07:19:17;;;;;;;6.53;3.00;;;10.60;99.20;;;;;;5134942;27;20550;-72
2022/04/27 07:21:43;;;;;;;7.03;2.90;;;10.60;99.50;;;;;;5136148;27;20080;-72
2022/04/27 07:24:09;;;;;;;9.43;3.63;;;10.70;99.50;;;;;;5135855;27;20277;-72
2022/04/27 07:26:35;;;;;;;6.60;2.93;;;10.80;99.40;;;;;;5136080;27;20802;-72
2022/04/27 07:29:01;;;;;;;7.50;3.07;;;10.70;99.40;;;;;;5135714;27;20051;-72
2022/04/27 07:31:27;;;;;;;8.00;3.27;;;10.80;99.60;;;;;;5136140;27;20287;-72
2022/04/27 07:33:52;;;;;;;9.67;2.87;;;10.80;99.60;;;;;;5135728;27;20055;-72
2022/04/27 07:36:18;;;;;;;10.57;3.30;;;10.80;99.60;;;;;;5134735;27;20035;-72
2022/04/27 07:38:44;;;;;;;7.97;3.03;;;10.80;99.00;;;;;;5136110;27;20050;-72
2022/04/27 07:41:10;;;;;;;7.77;2.77;;;10.80;99.00;;;;;;5134348;27;20474;-72
2022/04/27 07:43:36;;;;;;;9.40;2.87;;;10.90;98.20;;;;;;5135397;27;20087;-71
2022/04/27 07:46:05;;;;;;;10.10;2.83;;;10.90;97.60;;;;;;5133970;27;20082;-72
2022/04/27 07:48:32;;;;;;;10.53;2.67;;;10.90;97.10;;;;;;5135740;27;20051;-72
2022/04/27 07:51:03;;;;;;;7.03;2.87;;;11.00;96.90;;;;;;5135229;27;20284;-72
2022/04/27 07:53:29;;;;;;;13.70;3.47;;;11.10;97.00;;;;;;5134197;27;20285;-71
2022/04/27 07:55:55;;;;;;;12.60;3.30;;;11.10;96.70;;;;;;5117002;27;20289;-72
2022/04/27 07:58:21;;;;;;;9.90;3.10;;;11.10;96.40;;;;;;5133901;27;20360;-72
2022/04/27 08:00:47;;;;;;;13.73;3.07;;;11.20;95.90;;;;;;5135272;27;20043;-72
2022/04/27 08:03:13;;;;;;;11.43;3.30;;;11.20;95.70;;;;;;5133941;27;20341;-72
2022/04/27 08:05:39;;;;;;;17.40;3.07;;;11.20;95.20;;;;;;5135303;27;20046;-72
2022/04/27 08:08:10;;;;;;;10.43;3.07;;;11.30;95.80;;;;;;5134881;27;20074;-72
2022/04/27 08:10:37;;;;;;;16.07;3.00;;;11.40;95.70;;;;;;5134718;27;20277;-72
2022/04/27 08:13:02;;;;;;;9.70;2.83;;;11.40;95.80;;;;;;5134718;27;20273;-72
2022/04/27 08:15:28;;;;;;;14.63;2.87;;;11.40;95.80;;;;;;5135061;27;20670;-72
2022/04/27 08:17:58;;;;;;;12.33;3.30;;;11.30;95.50;;;;;;5116516;27;20043;-72
2022/04/27 08:23:13;;;;;;;11.47;2.70;;;11.30;95.60;;;;;;5134487;27;20284;-72
2022/04/27 08:25:40;;;;;;;14.67;3.23;;;11.20;95.70;;;;;;5133710;27;20332;-72
2022/04/27 08:28:07;;;;;;;14.33;3.37;;;11.20;95.80;;;;;;5133425;27;20285;-72
2022/04/27 08:30:34;;;;;;;11.27;2.90;;;11.10;95.30;;;;;;5134635;27;20273;-72
2022/04/27 08:33:00;;;;;;;12.63;3.17;;;11.10;95.50;;;;;;5134048;27;20308;-75
2022/04/27 08:35:29;;;;;;;12.33;2.50;;;11.00;95.80;;;;;;5135439;27;20377;-72
2022/04/27 08:37:55;;;;;;;8.77;2.63;;;11.10;95.90;;;;;;5140970;27;20070;-73
2022/04/27 08:40:21;;;;;;;12.57;2.63;;;11.10;95.60;;;;;;5144443;27;20825;-72
2022/04/27 08:42:49;;;;;;;16.10;3.57;;;11.10;95.60;;;;;;5133201;27;20043;-72
2022/04/27 08:45:17;;;;;;;18.00;3.63;;;11.00;95.10;;;;;;5152297;27;20288;-72
2022/04/27 08:47:46;;;;;;;14.30;2.67;;;11.00;95.00;;;;;;5155546;27;20375;-73
2022/04/27 08:50:14;;;;;;;13.50;3.47;;;11.00;95.20;;;;;;5154962;27;20272;-73
2022/04/27 08:52:41;;;;;;;12.57;3.00;;;11.10;94.60;;;;;;5155190;27;20283;-72
2022/04/27 08:55:08;;;;;;;13.17;2.60;;;11.10;94.40;;;;;;5154634;27;20268;-72
2022/04/27 08:57:34;;;;;;;13.60;3.57;;;11.00;94.40;;;;;;5154281;27;20701;-70
2022/04/27 09:00:00;;;;;;;14.13;2.97;;;11.00;94.00;;;;;;5154593;27;20671;-73
2022/04/27 09:02:27;;;;;;;15.27;2.87;;;11.00;94.00;;;;;;5154747;27;20304;-69
2022/04/27 09:05:08;;;;;;;11.73;2.80;;;11.10;94.20;;;;;;5154778;27;20119;-69
2022/04/27 09:07:42;;;;;;;14.13;3.20;;;11.20;94.10;;;;;;5154671;27;20284;-72
2022/04/27 09:10:16;;;;;;;11.37;2.40;;;11.30;94.10;;;;;;5154341;27;20349;-70
2022/04/27 09:12:50;;;;;;;12.83;3.10;;;11.40;93.40;;;;;;5153278;27;20308;-69
2022/04/27 09:15:19;;;;;;;11.50;2.50;;;11.40;92.10;;;;;;5154290;27;20375;-68
2022/04/27 09:20:54;;;;;;;11.03;2.90;;;11.40;92.00;;;;;;5122422;27;20301;-68
2022/04/27 09:23:25;;;;;;;12.97;2.50;;;11.40;92.40;;;;;;5110911;28;20292;-68
2022/04/27 09:26:00;;;;;;;10.43;2.67;;;11.50;93.10;;;;;;5112980;28;20300;-68
2022/04/27 09:28:29;;;;;;;11.90;2.50;;;11.60;92.10;;;;;;5113099;28;20749;-68
2022/04/27 09:30:55;;;;;;;13.03;3.43;;;11.60;91.90;;;;;;5111785;28;20284;-71
2022/04/27 09:33:36;;;;;;;12.47;2.97;;;11.60;91.90;;;;;;5112588;28;20360;-70
2022/04/27 09:36:22;;;;;;;10.53;3.07;;;11.70;89.10;;;;;;5113534;28;20367;-70
2022/04/27 09:38:47;;;;;;;12.25;2.83;;;11.60;89.70;;;;;;5112591;28;20342;-70
2022/04/27 09:41:13;;;;;;;11.93;2.40;;;11.60;90.60;;;;;;5111583;28;20043;-70
2022/04/27 09:43:47;;;;;;;12.20;2.70;;;11.70;90.30;;;;;;5111918;28;20484;-71
2022/04/27 09:46:25;;;;;;;11.23;3.10;;;11.70;89.30;;;;;;5112369;28;20122;-70
2022/04/27 09:49:09;;;;;;;12.17;2.83;;;11.80;87.90;;;;;;5117548;28;20303;-69
2022/04/27 09:51:55;;;;;;;12.93;2.70;;;11.90;88.80;;;;;;5133521;27;20289;-69
2022/04/27 09:54:23;;;;;;;11.73;2.23;;;12.10;85.50;;;;;;5131699;28;20355;-68
2022/04/27 09:57:00;;;;;;;13.27;3.00;;;12.20;86.80;;;;;;5133278;27;20265;-68
2022/04/27 09:59:30;;;;;;;12.00;3.10;;;12.30;85.00;;;;;;5132855;27;20276;-70
2022/04/27 10:02:04;;;;;;;10.67;2.57;;;12.20;82.90;;;;;;5133279;27;20277;-69
2022/04/27 10:04:30;;;;;;;17.40;3.07;;;12.20;83.00;;;;;;5114682;27;20850;-80
2022/04/27 10:07:02;;;;;;;11.37;3.03;;;12.40;84.10;;;;;;5094518;28;20325;-73
2022/04/27 10:09:29;;;;;;;11.57;2.80;;;12.50;81.80;;;;;;5112824;28;20293;-67
2022/04/27 10:11:56;;;;;;;14.73;2.60;;;12.50;81.30;;;;;;5112398;28;20313;-68
2022/04/27 10:14:22;;;;;;;13.20;3.10;;;12.40;79.40;;;;;;5110966;28;20300;-68
2022/04/27 10:16:51;;;;;;;9.37;2.47;;;12.40;78.00;;;;;;5115751;28;20269;-69
2022/04/27 10:19:17;;;;;;;11.60;2.90;;;12.30;78.20;;;;;;5112246;28;20108;-68
2022/04/27 10:22:05;;;;;;;13.23;2.77;;;12.40;79.20;;;;;;5112253;28;20277;-68
2022/04/27 10:24:34;;;;;;;11.80;2.60;;;12.60;77.60;;;;;;5115246;28;20297;-69
2022/04/27 10:27:21;;;;;;;13.43;2.70;;;12.50;76.00;;;;;;5129384;28;20303;-69
2022/04/27 10:29:53;;;;;;;13.70;2.93;;;12.50;75.40;;;;;;5132111;28;20829;-70
2022/04/27 10:32:48;;;;;;;10.83;2.50;;;12.70;75.40;;;;;;5119675;27;20293;-69
2022/04/27 10:35:18;;;;;;;9.17;2.40;;;12.80;71.40;;;;;;5115861;27;20277;-73
2022/04/27 10:37:46;;;;;;;10.07;2.50;;;13.00;72.80;;;;;;5129123;27;20297;-71
2022/04/27 10:40:31;;;;;;;9.83;2.73;;;13.10;70.30;;;;;;5149017;27;20358;-69
2022/04/27 10:43:06;;;;;;;13.93;2.40;;;13.20;86.00;;;;;;5131034;27;20288;-70
2022/04/27 10:45:36;;;;;;;10.57;2.45;;;13.20;68.40;;;;;;5133832;27;20091;-68
2022/04/27 10:48:06;;;;;;;8.97;2.30;;;13.20;67.10;;;;;;5134934;27;20138;-73
2022/04/27 10:50:33;;;;;;;10.60;2.80;;;13.20;67.30;;;;;;5135186;27;20280;-69
2022/04/27 10:53:19;;;;;;;9.73;2.57;;;13.30;67.90;;;;;;5134805;27;20284;-69
2022/04/27 10:55:51;;;;;;;12.93;2.57;;;13.30;65.00;;;;;;5131754;27;20644;-70
2022/04/27 10:58:18;;;;;;;11.23;2.73;;;;;;;;;;5132159;27;20284;-70
2022/04/27 11:01:10;;;;;;;15.13;2.97;;;13.30;66.10;;;;;;5133314;27;20305;-72
2022/04/27 11:03:36;;;;;;;11.43;2.63;;;13.30;66.00;;;;;;5131214;27;20293;-77
2022/04/27 11:06:10;;;;;;;13.47;3.20;;;13.30;66.90;;;;;;5136316;27;20301;-74
2022/04/27 11:09:01;;;;;;;13.90;3.00;;;13.30;66.60;;;;;;5133922;27;20305;-73
2022/04/27 11:11:27;;;;;;;14.93;2.97;;;13.20;66.30;;;;;;5133699;27;20277;-69
2022/04/27 11:14:04;;;;;;;12.83;3.27;;;13.20;67.00;;;;;;5136063;27;20284;-69
2022/04/27 11:16:42;;;;;;;9.60;2.50;;;13.20;67.40;;;;;;5135999;27;20284;-71
2022/04/27 11:19:08;;;;;;;10.37;2.30;;;13.20;67.70;;;;;;5136238;27;20669;-71
2022/04/27 11:21:33;;;;;;;12.03;2.90;;;13.20;66.60;;;;;;5136018;27;20284;-70
2022/04/27 11:24:05;;;;;;;11.43;3.50;;;13.30;66.10;;;;;;5135111;27;20288;-74
2022/04/27 11:26:31;;;;;;;10.60;2.80;;;13.30;66.20;;;;;;5135306;27;20042;-74
2022/04/27 11:28:57;;;;;;;9.67;2.53;;;13.30;66.20;;;;;;5134411;27;20285;-74
2022/04/27 11:31:23;;;;;;;10.90;3.07;;;13.40;66.70;;;;;;5135576;27;20504;-73
2022/04/27 11:33:49;;;;;;;12.83;2.87;;;;;;;;;;5135800;27;20737;-74
2022/04/27 11:36:24;;;;;;;10.93;2.47;;;;;;;;;;5135261;27;20039;-73
2022/04/27 11:38:50;;;;;;;14.57;3.10;;;;;;;;;;5135415;27;20338;-74
2022/04/27 11:41:24;;;;;;;14.03;2.77;;;;;;;;;;5134899;27;20043;-73
2022/04/27 11:43:56;;;;;;;9.53;2.50;;;;;;;;;;5135522;27;20356;-72
2022/04/27 11:46:22;;;;;;;9.20;2.63;;;;;;;;;;5133880;27;20426;-76
2022/04/27 11:48:49;;;;;;;9.60;2.33;;;;;;;;;;5135717;27;20280;-73
2022/04/27 11:51:15;;;;;;;9.47;2.57;;;;;;;;;;5133939;27;20806;-73
2022/04/27 11:53:42;;;;;;;9.70;2.03;;;;;;;;;;5135103;27;20866;-76
2022/04/27 11:56:09;;;;;;;12.57;2.77;;;14.00;60.80;;;;;;5135074;27;20894;-71
2022/04/27 11:58:34;;;;;;;11.67;2.27;;;14.00;62.20;;;;;;5134071;27;20329;-70
2022/04/27 12:01:01;;;;;;;7.97;2.80;;;13.90;62.50;;;;;;5135324;27;20285;-71
2022/04/27 12:03:29;;;;;;;10.70;2.63;;;13.80;62.50;;;;;;5134886;27;20050;-71
2022/04/27 12:05:56;;;;;;;15.47;3.07;;;13.80;63.10;;;;;;5134913;27;20345;-71
2022/04/27 12:08:26;;;;;;;12.70;2.57;;;13.80;63.40;;;;;;5134422;27;20776;-71
2022/04/27 12:10:52;;;;;;;9.43;2.30;;;13.70;63.30;;;;;;5135057;27;20360;-71
2022/04/27 12:13:20;;;;;;;13.97;3.10;;;13.70;63.30;;;;;;5134395;27;20273;-71
2022/04/27 12:15:49;;;;;;;13.63;2.60;;;13.70;63.60;;;;;;5134795;27;20351;-71
2022/04/27 12:18:19;;;;;;;11.93;2.50;;;13.70;63.50;;;;;;5134400;27;20363;-72
2022/04/27 12:20:48;;;;;;;17.93;3.10;;;13.70;63.10;;;;;;5134737;27;20273;-71
2022/04/27 12:23:20;;;;;;;12.80;2.30;;;13.70;63.30;;;;;;5134771;27;20292;-71
2022/04/27 12:25:53;;;;;;;10.37;2.23;;;13.60;63.00;;;;;;5133597;27;20660;-71
2022/04/27 12:28:24;;;;;;;11.83;2.93;;;13.70;63.40;;;;;;5134435;27;20319;-71
2022/04/27 12:30:54;;;;;;;12.90;2.80;;;13.70;62.40;;;;;;5134837;27;20317;-71
2022/04/27 12:33:43;;;;;;;9.40;3.07;;;13.70;61.80;;;;;;5134417;27;20314;-72
2022/04/27 12:38:58;;;;;;;9.25;2.30;;;13.80;61.80;;;;;;5134767;27;20283;-73
2022/04/27 12:41:39;;;;;;;11.50;2.80;;;13.90;61.30;;;;;;5133747;27;20513;-69
2022/04/27 12:44:09;;;;;;;8.67;2.50;;;14.00;61.60;;;;;;5134257;27;20284;-73
2022/04/27 12:46:35;;;;;;;10.77;2.73;;;14.10;61.90;;;;;;5134089;27;20645;-73
2022/04/27 12:49:03;;;;;;;10.23;2.50;;;14.00;60.70;;;;;;5134581;27;20363;-71
2022/04/27 12:51:31;;;;;;;11.13;3.33;;;14.00;60.70;;;;;;5134305;27;20740;-71
2022/04/27 12:53:57;;;;;;;12.60;3.23;;;14.00;61.00;;;;;;5134637;27;20285;-70
2022/04/27 12:56:39;;;;;;;15.03;3.00;;;14.00;60.90;;;;;;5134006;27;20272;-70
2022/04/27 12:59:10;;;;;;;13.63;3.07;;;;;;;;;;5134555;27;20273;-70
2022/04/27 13:01:36;;;;;;;10.00;2.53;;;;;;;;;;5134025;27;20288;-70
2022/04/27 13:04:02;;;;;;;8.10;2.40;;;;;;;;;;5134244;27;20322;-71
2022/04/27 13:06:30;;;;;;;10.63;2.53;;;;;;;;;;5133677;27;20296;-70
2022/04/27 13:11:57;;;;;;;11.57;2.77;;;14.00;58.50;;;;;;5133436;27;20288;-72
2022/04/27 13:14:25;;;;;;;12.03;2.57;;;13.90;59.80;;;;;;5133462;27;20278;-74
2022/04/27 13:16:54;;;;;;;12.43;2.43;;;13.80;60.30;;;;;;5133881;27;20629;-71
2022/04/27 13:19:20;;;;;;;10.63;2.30;;;13.80;60.50;;;;;;5133531;27;20308;-73
2022/04/27 13:21:47;;;;;;;8.03;2.07;;;13.80;60.10;;;;;;5133577;27;20421;-74